Cincinnati, OH

7:01 AM EST on March 02, 2015 (GMT -0500)
Riverside Plaza | Change Station
CLOSE
Current Station
Personal Weather Station
Location: Covington, KY
Elevation: 490 ft
Nearby Weather Stations
Active Advisory: Special Statement Active Notice: Record Report, Local Storm Report

Elev 490 ft 39.09 °N, 84.51 °W | Updated 375 days ago

Partly Cloudy
Partly Cloudy
22 °F
Feels Like 22 °F
N
5
Wind Variable Wind from NW
Gusts mph

Today
High -- | Low -- °F
--% Chance of Precip.
Yesterday
High -- | Low -- °F
Precip. -- in
7:09 AM 6:31 PM
Waxing Gibbous, 91% visible
Pressure 30.53 in
Visibility 10.0 miles
Clouds Clear
Dew Point 17 °F
Humidity 80%
Rainfall 0.00 in
Snow Depth Not available.
UV 0 out of 12
Pollen .70 out of 12
Air Quality Not available.
Flu Activity Not available.
METAR KLUK 021153Z 34005KT 10SM CLR M05/M09 A3051 RMK AO2 SLP338 70002 T10501089 10000 21056 53024

More Conditions Fewer Conditions

Pressure 30.53 in
Visibility 10.0 miles
Clouds Clear
Dew Point 17 °F
Humidity 80%
Rainfall 0.00 in
Snow Depth Not available.
UV 0 out of 12
Pollen .70 out of 12
Air Quality Not available.
Flu Activity Not available.
METAR KLUK 021153Z 34005KT 10SM CLR M05/M09 A3051 RMK AO2 SLP338 70002 T10501089 10000 21056 53024

More Conditions Fewer Conditions

10-Day Weather Forecast

Almanac

Astronomy

Mar. 02, 2015 Rise Set
Actual Time
Civil Twilight
Nautical Twilight
Astronomical Twilight
Moon
Length of Visible Light
Length of Day
Tomorrow will be .
, % of the Moon is Illuminated

Today's Extremes

State Highs State Lows

Community

WunderPhotos

Upload Photos

1,801,761 photos uploaded!

WunderBlogs® & News

Nearby

Air Quality

  Air Quality AQ Index Pollutant
Not available.

Snow Depth

Station Depth Elevation

Earthquake Activity

City Distance Mag. Time & Date
Minimum magnitude displayed is 2.5.

Coastal Water Temperatures

Place Temperature

Nearby Weather Stations

Special Statement
Statement as of 3:56 AM EST on March 02, 2015

... Icy roads likely this morning...

With temperatures below freezing any moisture on roadways and
sidewalks will freeze leading to icy conditions on untreated
surfaces. Please use extra caution if traveling this morning and
allow plenty of room between yourself and the car in front of you.